Terminal Aerodrome Forecast
Issued by NWS Birmingham, AL

Home | Current Version | Previous Version | Text Only | Print | Product List | Glossary On
Versions: 1 2 3 4 5 6 7 8 9 10 11 12 13 14 15 16 17 18 19
000
FTUS44 KBMX 110100 AAA
TAFBHM
TAF AMD
KBHM 110118Z 1101/1124 32006KT P6SM VCTS SCT040CB BKN080
     FM110200 32003KT P6SM SCT050
     FM111500 36006KT P6SM SCT050=

USA.gov is the U.S. government's official web portal to all federal, state and local government web resources and services.